sensor_id;sensor_type;location;lat;lon;timestamp;temperature;humidity
38995;DHT22;24769;18.712;99.000;2023-02-28T00:00:51;16.20;99.90
38995;DHT22;24769;18.712;99.000;2023-02-28T00:03:17;16.20;99.90
38995;DHT22;24769;18.712;99.000;2023-02-28T00:05:44;16.30;99.90
38995;DHT22;24769;18.712;99.000;2023-02-28T00:08:10;16.40;99.90
38995;DHT22;24769;18.712;99.000;2023-02-28T00:10:38;16.40;99.90
38995;DHT22;24769;18.712;99.000;2023-02-28T00:13:06;16.50;99.90
38995;DHT22;24769;18.712;99.000;2023-02-28T00:15:33;16.50;99.90
38995;DHT22;24769;18.712;99.000;2023-02-28T00:18:00;16.50;99.90
38995;DHT22;24769;18.712;99.000;2023-02-28T00:20:26;16.60;99.90
38995;DHT22;24769;18.712;99.000;2023-02-28T00:22:54;16.60;99.90
38995;DHT22;24769;18.712;99.000;2023-02-28T00:25:23;16.60;99.90
38995;DHT22;24769;18.712;99.000;2023-02-28T00:27:50;16.70;99.90
38995;DHT22;24769;18.712;99.000;2023-02-28T00:30:19;16.90;99.90
38995;DHT22;24769;18.712;99.000;2023-02-28T00:32:46;17.00;99.90
38995;DHT22;24769;18.712;99.000;2023-02-28T00:35:12;17.10;99.90
38995;DHT22;24769;18.712;99.000;2023-02-28T00:37:39;17.30;99.90
38995;DHT22;24769;18.712;99.000;2023-02-28T00:40:07;17.30;99.90
38995;DHT22;24769;18.712;99.000;2023-02-28T00:42:35;17.40;99.90
38995;DHT22;24769;18.712;99.000;2023-02-28T00:45:01;17.60;99.90
38995;DHT22;24769;18.712;99.000;2023-02-28T00:47:30;17.70;99.90
38995;DHT22;24769;18.712;99.000;2023-02-28T00:49:56;17.80;99.90
38995;DHT22;24769;18.712;99.000;2023-02-28T00:52:23;17.90;99.90
38995;DHT22;24769;18.712;99.000;2023-02-28T00:54:49;18.00;99.90
38995;DHT22;24769;18.712;99.000;2023-02-28T00:57:16;18.20;99.90
38995;DHT22;24769;18.712;99.000;2023-02-28T00:59:42;18.30;99.90
38995;DHT22;24769;18.712;99.000;2023-02-28T01:02:09;18.40;99.90
38995;DHT22;24769;18.712;99.000;2023-02-28T01:04:35;18.50;99.90
38995;DHT22;24769;18.712;99.000;2023-02-28T01:07:02;18.60;99.90
38995;DHT22;24769;18.712;99.000;2023-02-28T01:09:30;18.70;99.90
38995;DHT22;24769;18.712;99.000;2023-02-28T01:11:57;18.90;99.90
38995;DHT22;24769;18.712;99.000;2023-02-28T01:14:23;19.00;99.90
38995;DHT22;24769;18.712;99.000;2023-02-28T01:16:50;19.00;99.90
38995;DHT22;24769;18.712;99.000;2023-02-28T01:19:17;19.10;99.90
38995;DHT22;24769;18.712;99.000;2023-02-28T01:21:44;19.30;99.90
38995;DHT22;24769;18.712;99.000;2023-02-28T01:24:10;19.40;99.90
38995;DHT22;24769;18.712;99.000;2023-02-28T01:26:37;19.60;99.90
38995;DHT22;24769;18.712;99.000;2023-02-28T01:29:03;19.70;99.90
38995;DHT22;24769;18.712;99.000;2023-02-28T01:31:30;19.80;99.90
38995;DHT22;24769;18.712;99.000;2023-02-28T01:33:57;19.90;99.90
38995;DHT22;24769;18.712;99.000;2023-02-28T01:36:25;19.90;99.90
38995;DHT22;24769;18.712;99.000;2023-02-28T01:38:52;19.90;99.90
38995;DHT22;24769;18.712;99.000;2023-02-28T01:41:24;20.00;99.90
38995;DHT22;24769;18.712;99.000;2023-02-28T01:43:56;20.30;99.90
38995;DHT22;24769;18.712;99.000;2023-02-28T01:46:22;20.40;96.90
38995;DHT22;24769;18.712;99.000;2023-02-28T01:49:11;20.50;96.10
38995;DHT22;24769;18.712;99.000;2023-02-28T01:51:43;20.60;90.40
38995;DHT22;24769;18.712;99.000;2023-02-28T01:54:29;20.60;92.00
38995;DHT22;24769;18.712;99.000;2023-02-28T01:57:15;20.80;92.40
38995;DHT22;24769;18.712;99.000;2023-02-28T02:02:21;20.90;90.50
38995;DHT22;24769;18.712;99.000;2023-02-28T02:05:05;21.20;93.00
38995;DHT22;24769;18.712;99.000;2023-02-28T02:07:35;21.30;92.10
38995;DHT22;24769;18.712;99.000;2023-02-28T02:10:16;21.50;92.70
38995;DHT22;24769;18.712;99.000;2023-02-28T02:13:19;21.70;84.90
38995;DHT22;24769;18.712;99.000;2023-02-28T02:30:04;22.20;70.40
38995;DHT22;24769;18.712;99.000;2023-02-28T02:35:38;22.60;65.40
38995;DHT22;24769;18.712;99.000;2023-02-28T02:48:56;23.00;60.80
38995;DHT22;24769;18.712;99.000;2023-02-28T02:51:24;23.40;58.00
38995;DHT22;24769;18.712;99.000;2023-02-28T02:54:17;23.70;55.00
38995;DHT22;24769;18.712;99.000;2023-02-28T02:56:47;23.60;52.90
38995;DHT22;24769;18.712;99.000;2023-02-28T02:59:21;23.60;54.00
38995;DHT22;24769;18.712;99.000;2023-02-28T03:02:02;23.50;52.80
38995;DHT22;24769;18.712;99.000;2023-02-28T03:04:46;23.50;54.10
38995;DHT22;24769;18.712;99.000;2023-02-28T03:07:14;23.90;53.70
38995;DHT22;24769;18.712;99.000;2023-02-28T03:09:49;24.20;51.50
38995;DHT22;24769;18.712;99.000;2023-02-28T03:12:16;24.30;50.70
38995;DHT22;24769;18.712;99.000;2023-02-28T03:15:16;24.50;48.70
38995;DHT22;24769;18.712;99.000;2023-02-28T03:17:53;24.60;47.40
38995;DHT22;24769;18.712;99.000;2023-02-28T03:20:32;24.70;44.50
38995;DHT22;24769;18.712;99.000;2023-02-28T03:23:16;24.80;43.50
38995;DHT22;24769;18.712;99.000;2023-02-28T03:26:33;25.00;42.90
38995;DHT22;24769;18.712;99.000;2023-02-28T03:29:24;25.20;39.60
38995;DHT22;24769;18.712;99.000;2023-02-28T03:32:06;24.70;38.50
38995;DHT22;24769;18.712;99.000;2023-02-28T03:34:41;25.00;39.20
38995;DHT22;24769;18.712;99.000;2023-02-28T03:37:13;25.00;38.40
38995;DHT22;24769;18.712;99.000;2023-02-28T03:40:01;25.00;38.10
38995;DHT22;24769;18.712;99.000;2023-02-28T03:42:35;25.10;36.30
38995;DHT22;24769;18.712;99.000;2023-02-28T03:45:23;25.30;36.70
38995;DHT22;24769;18.712;99.000;2023-02-28T03:48:08;25.80;36.30
38995;DHT22;24769;18.712;99.000;2023-02-28T03:50:41;25.70;33.70
38995;DHT22;24769;18.712;99.000;2023-02-28T03:55:54;25.80;32.30
38995;DHT22;24769;18.712;99.000;2023-02-28T03:58:42;25.60;33.20
38995;DHT22;24769;18.712;99.000;2023-02-28T04:01:15;25.70;33.00
38995;DHT22;24769;18.712;99.000;2023-02-28T04:03:44;26.10;32.50
38995;DHT22;24769;18.712;99.000;2023-02-28T04:06:19;26.50;32.80
38995;DHT22;24769;18.712;99.000;2023-02-28T04:08:47;26.60;30.60
38995;DHT22;24769;18.712;99.000;2023-02-28T04:11:28;26.50;31.10
38995;DHT22;24769;18.712;99.000;2023-02-28T04:13:56;26.50;30.90
38995;DHT22;24769;18.712;99.000;2023-02-28T04:16:22;26.50;30.30
38995;DHT22;24769;18.712;99.000;2023-02-28T04:18:49;26.90;30.20
38995;DHT22;24769;18.712;99.000;2023-02-28T04:21:15;26.90;26.70
38995;DHT22;24769;18.712;99.000;2023-02-28T04:23:46;27.00;27.00
38995;DHT22;24769;18.712;99.000;2023-02-28T04:26:13;26.60;27.30
38995;DHT22;24769;18.712;99.000;2023-02-28T04:28:39;27.00;28.10
38995;DHT22;24769;18.712;99.000;2023-02-28T04:31:06;27.30;27.10
38995;DHT22;24769;18.712;99.000;2023-02-28T04:33:33;27.10;25.80
38995;DHT22;24769;18.712;99.000;2023-02-28T04:36:05;27.40;24.90
38995;DHT22;24769;18.712;99.000;2023-02-28T04:38:35;27.50;24.00
38995;DHT22;24769;18.712;99.000;2023-02-28T04:41:03;27.50;23.70
38995;DHT22;24769;18.712;99.000;2023-02-28T04:43:30;27.90;22.90
38995;DHT22;24769;18.712;99.000;2023-02-28T04:46:00;27.80;22.00
38995;DHT22;24769;18.712;99.000;2023-02-28T04:48:31;28.00;23.10
38995;DHT22;24769;18.712;99.000;2023-02-28T04:51:06;28.00;20.70
38995;DHT22;24769;18.712;99.000;2023-02-28T04:53:34;28.00;19.10
38995;DHT22;24769;18.712;99.000;2023-02-28T04:56:01;27.90;19.10
38995;DHT22;24769;18.712;99.000;2023-02-28T04:58:27;28.20;20.30
38995;DHT22;24769;18.712;99.000;2023-02-28T05:00:54;28.40;19.40
38995;DHT22;24769;18.712;99.000;2023-02-28T05:03:27;28.50;19.20
38995;DHT22;24769;18.712;99.000;2023-02-28T05:05:53;28.70;19.20
38995;DHT22;24769;18.712;99.000;2023-02-28T05:08:20;28.60;18.60
38995;DHT22;24769;18.712;99.000;2023-02-28T05:10:46;28.70;17.70
38995;DHT22;24769;18.712;99.000;2023-02-28T05:13:13;28.80;17.50
38995;DHT22;24769;18.712;99.000;2023-02-28T05:15:39;28.60;16.20
38995;DHT22;24769;18.712;99.000;2023-02-28T05:18:07;28.40;17.60
38995;DHT22;24769;18.712;99.000;2023-02-28T05:20:34;28.60;17.80
38995;DHT22;24769;18.712;99.000;2023-02-28T05:23:01;28.70;16.60
38995;DHT22;24769;18.712;99.000;2023-02-28T05:25:29;28.60;15.10
38995;DHT22;24769;18.712;99.000;2023-02-28T05:27:55;28.90;15.90
38995;DHT22;24769;18.712;99.000;2023-02-28T05:30:22;28.60;13.70
38995;DHT22;24769;18.712;99.000;2023-02-28T05:32:51;28.90;14.90
38995;DHT22;24769;18.712;99.000;2023-02-28T05:35:17;28.90;13.70
38995;DHT22;24769;18.712;99.000;2023-02-28T05:37:44;29.10;15.50
38995;DHT22;24769;18.712;99.000;2023-02-28T05:40:11;29.00;15.10
38995;DHT22;24769;18.712;99.000;2023-02-28T05:42:38;29.00;15.50
38995;DHT22;24769;18.712;99.000;2023-02-28T05:45:05;29.20;15.30
38995;DHT22;24769;18.712;99.000;2023-02-28T05:47:32;29.40;14.90
38995;DHT22;24769;18.712;99.000;2023-02-28T05:49:59;29.40;13.70
38995;DHT22;24769;18.712;99.000;2023-02-28T05:52:26;29.30;14.10
38995;DHT22;24769;18.712;99.000;2023-02-28T05:54:53;29.70;14.90
38995;DHT22;24769;18.712;99.000;2023-02-28T05:57:19;29.70;13.90
38995;DHT22;24769;18.712;99.000;2023-02-28T05:59:46;29.80;13.20
38995;DHT22;24769;18.712;99.000;2023-02-28T06:02:16;29.60;12.00
38995;DHT22;24769;18.712;99.000;2023-02-28T06:04:43;29.40;13.10
38995;DHT22;24769;18.712;99.000;2023-02-28T06:07:11;29.70;12.80
38995;DHT22;24769;18.712;99.000;2023-02-28T06:09:38;29.50;11.90
38995;DHT22;24769;18.712;99.000;2023-02-28T06:12:05;29.00;12.20
38995;DHT22;24769;18.712;99.000;2023-02-28T06:14:34;29.60;12.50
38995;DHT22;24769;18.712;99.000;2023-02-28T06:17:01;29.50;11.80
38995;DHT22;24769;18.712;99.000;2023-02-28T06:19:27;29.80;13.10
38995;DHT22;24769;18.712;99.000;2023-02-28T06:21:56;29.80;11.50
38995;DHT22;24769;18.712;99.000;2023-02-28T06:24:24;29.90;11.30
38995;DHT22;24769;18.712;99.000;2023-02-28T06:26:53;29.60;10.50
38995;DHT22;24769;18.712;99.000;2023-02-28T06:29:20;29.50;11.30
38995;DHT22;24769;18.712;99.000;2023-02-28T06:31:47;29.70;11.90
38995;DHT22;24769;18.712;99.000;2023-02-28T06:34:14;29.90;10.00
38995;DHT22;24769;18.712;99.000;2023-02-28T06:36:42;29.90;11.30
38995;DHT22;24769;18.712;99.000;2023-02-28T06:39:09;29.90;10.80
38995;DHT22;24769;18.712;99.000;2023-02-28T06:41:36;29.90;9.10
38995;DHT22;24769;18.712;99.000;2023-02-28T06:44:22;30.10;9.80
38995;DHT22;24769;18.712;99.000;2023-02-28T06:46:49;30.00;9.50
38995;DHT22;24769;18.712;99.000;2023-02-28T06:49:16;29.70;9.00
38995;DHT22;24769;18.712;99.000;2023-02-28T06:51:44;30.00;10.10
38995;DHT22;24769;18.712;99.000;2023-02-28T06:54:11;29.90;8.20
38995;DHT22;24769;18.712;99.000;2023-02-28T06:56:38;29.80;9.00
38995;DHT22;24769;18.712;99.000;2023-02-28T06:59:04;29.70;7.80
38995;DHT22;24769;18.712;99.000;2023-02-28T07:01:31;30.50;8.10
38995;DHT22;24769;18.712;99.000;2023-02-28T07:03:59;30.20;9.10
38995;DHT22;24769;18.712;99.000;2023-02-28T07:06:26;30.20;8.40
38995;DHT22;24769;18.712;99.000;2023-02-28T07:08:53;30.20;9.40
38995;DHT22;24769;18.712;99.000;2023-02-28T07:11:22;30.40;9.20
38995;DHT22;24769;18.712;99.000;2023-02-28T07:13:49;30.50;8.80
38995;DHT22;24769;18.712;99.000;2023-02-28T07:16:16;30.40;9.00
38995;DHT22;24769;18.712;99.000;2023-02-28T07:18:43;30.20;8.30
38995;DHT22;24769;18.712;99.000;2023-02-28T07:21:10;30.00;9.30
38995;DHT22;24769;18.712;99.000;2023-02-28T07:23:38;30.40;9.80
38995;DHT22;24769;18.712;99.000;2023-02-28T07:26:12;30.50;9.20
38995;DHT22;24769;18.712;99.000;2023-02-28T07:28:42;30.60;9.20
38995;DHT22;24769;18.712;99.000;2023-02-28T07:31:09;30.80;9.60
38995;DHT22;24769;18.712;99.000;2023-02-28T07:33:36;30.80;8.60
38995;DHT22;24769;18.712;99.000;2023-02-28T07:36:05;30.50;8.40
38995;DHT22;24769;18.712;99.000;2023-02-28T07:38:36;30.40;9.20
38995;DHT22;24769;18.712;99.000;2023-02-28T07:41:04;30.50;9.10
38995;DHT22;24769;18.712;99.000;2023-02-28T07:43:31;30.50;10.40
38995;DHT22;24769;18.712;99.000;2023-02-28T07:46:09;30.70;9.70
38995;DHT22;24769;18.712;99.000;2023-02-28T07:48:36;30.50;9.30
38995;DHT22;24769;18.712;99.000;2023-02-28T07:51:03;30.30;9.10
38995;DHT22;24769;18.712;99.000;2023-02-28T07:53:29;30.40;9.50
38995;DHT22;24769;18.712;99.000;2023-02-28T07:55:57;30.50;8.40
38995;DHT22;24769;18.712;99.000;2023-02-28T07:58:25;30.50;9.60
38995;DHT22;24769;18.712;99.000;2023-02-28T08:00:54;30.40;8.40
38995;DHT22;24769;18.712;99.000;2023-02-28T08:03:22;30.40;9.60
38995;DHT22;24769;18.712;99.000;2023-02-28T08:05:49;30.20;8.70
38995;DHT22;24769;18.712;99.000;2023-02-28T08:08:16;30.30;10.60
38995;DHT22;24769;18.712;99.000;2023-02-28T08:10:46;30.60;11.10
38995;DHT22;24769;18.712;99.000;2023-02-28T08:13:12;30.70;10.10
38995;DHT22;24769;18.712;99.000;2023-02-28T08:15:41;30.50;9.20
38995;DHT22;24769;18.712;99.000;2023-02-28T08:18:08;30.50;10.20
38995;DHT22;24769;18.712;99.000;2023-02-28T08:20:35;30.80;8.80
38995;DHT22;24769;18.712;99.000;2023-02-28T08:23:02;30.80;9.20
38995;DHT22;24769;18.712;99.000;2023-02-28T08:25:28;30.60;8.90
38995;DHT22;24769;18.712;99.000;2023-02-28T08:27:55;30.60;10.30
38995;DHT22;24769;18.712;99.000;2023-02-28T08:30:21;30.80;9.80
38995;DHT22;24769;18.712;99.000;2023-02-28T08:32:48;30.60;9.90
38995;DHT22;24769;18.712;99.000;2023-02-28T08:35:15;30.50;8.80
38995;DHT22;24769;18.712;99.000;2023-02-28T08:37:41;30.50;9.90
38995;DHT22;24769;18.712;99.000;2023-02-28T08:40:08;30.80;9.60
38995;DHT22;24769;18.712;99.000;2023-02-28T08:42:35;30.60;9.50
38995;DHT22;24769;18.712;99.000;2023-02-28T08:45:02;30.50;9.90
38995;DHT22;24769;18.712;99.000;2023-02-28T08:47:28;30.60;10.90
38995;DHT22;24769;18.712;99.000;2023-02-28T08:49:55;30.60;10.00
38995;DHT22;24769;18.712;99.000;2023-02-28T08:52:22;30.60;9.40
38995;DHT22;24769;18.712;99.000;2023-02-28T08:54:48;30.60;9.00
38995;DHT22;24769;18.712;99.000;2023-02-28T08:57:15;30.40;10.80
38995;DHT22;24769;18.712;99.000;2023-02-28T08:59:41;30.30;10.80
38995;DHT22;24769;18.712;99.000;2023-02-28T09:02:11;30.20;10.10
38995;DHT22;24769;18.712;99.000;2023-02-28T09:04:38;30.00;9.90
38995;DHT22;24769;18.712;99.000;2023-02-28T09:07:05;30.10;10.80
38995;DHT22;24769;18.712;99.000;2023-02-28T09:09:31;30.30;9.90
38995;DHT22;24769;18.712;99.000;2023-02-28T09:11:58;30.30;9.50
38995;DHT22;24769;18.712;99.000;2023-02-28T09:14:25;30.10;9.90
38995;DHT22;24769;18.712;99.000;2023-02-28T09:16:51;30.20;10.70
38995;DHT22;24769;18.712;99.000;2023-02-28T09:19:18;30.20;11.00
38995;DHT22;24769;18.712;99.000;2023-02-28T09:21:44;30.20;10.60
38995;DHT22;24769;18.712;99.000;2023-02-28T09:24:11;30.00;11.20
38995;DHT22;24769;18.712;99.000;2023-02-28T09:26:40;30.00;10.90
38995;DHT22;24769;18.712;99.000;2023-02-28T09:29:07;30.00;10.40
38995;DHT22;24769;18.712;99.000;2023-02-28T09:31:33;30.10;11.00
38995;DHT22;24769;18.712;99.000;2023-02-28T09:34:00;30.00;10.60
38995;DHT22;24769;18.712;99.000;2023-02-28T09:36:28;29.90;10.60
38995;DHT22;24769;18.712;99.000;2023-02-28T09:38:55;29.90;12.50
38995;DHT22;24769;18.712;99.000;2023-02-28T09:41:24;29.90;10.70
38995;DHT22;24769;18.712;99.000;2023-02-28T09:43:59;29.90;10.50
38995;DHT22;24769;18.712;99.000;2023-02-28T09:46:33;29.80;11.70
38995;DHT22;24769;18.712;99.000;2023-02-28T09:49:16;29.80;10.90
38995;DHT22;24769;18.712;99.000;2023-02-28T09:54:17;29.70;11.80
38995;DHT22;24769;18.712;99.000;2023-02-28T09:57:35;29.60;12.60
38995;DHT22;24769;18.712;99.000;2023-02-28T10:08:28;29.40;12.50
38995;DHT22;24769;18.712;99.000;2023-02-28T10:11:07;29.40;13.30
38995;DHT22;24769;18.712;99.000;2023-02-28T10:16:52;29.10;14.10
38995;DHT22;24769;18.712;99.000;2023-02-28T10:19:42;29.10;13.80
38995;DHT22;24769;18.712;99.000;2023-02-28T10:24:48;28.90;14.30
38995;DHT22;24769;18.712;99.000;2023-02-28T10:27:30;28.80;14.80
38995;DHT22;24769;18.712;99.000;2023-02-28T10:29:59;28.80;14.40
38995;DHT22;24769;18.712;99.000;2023-02-28T10:32:30;28.80;14.70
38995;DHT22;24769;18.712;99.000;2023-02-28T10:35:10;28.70;14.80
38995;DHT22;24769;18.712;99.000;2023-02-28T10:37:43;28.60;15.00
38995;DHT22;24769;18.712;99.000;2023-02-28T10:46:02;28.10;17.50
38995;DHT22;24769;18.712;99.000;2023-02-28T10:48:38;27.90;19.80
38995;DHT22;24769;18.712;99.000;2023-02-28T10:51:14;27.60;20.00
38995;DHT22;24769;18.712;99.000;2023-02-28T10:53:50;27.60;19.60
38995;DHT22;24769;18.712;99.000;2023-02-28T10:56:19;27.40;21.40
38995;DHT22;24769;18.712;99.000;2023-02-28T10:59:08;27.40;20.30
38995;DHT22;24769;18.712;99.000;2023-02-28T11:01:48;27.20;20.40
38995;DHT22;24769;18.712;99.000;2023-02-28T11:04:35;27.10;20.70
38995;DHT22;24769;18.712;99.000;2023-02-28T11:07:22;26.90;21.00
38995;DHT22;24769;18.712;99.000;2023-02-28T11:09:51;26.70;21.30
38995;DHT22;24769;18.712;99.000;2023-02-28T11:12:38;26.60;23.70
38995;DHT22;24769;18.712;99.000;2023-02-28T11:17:54;26.20;25.60
38995;DHT22;24769;18.712;99.000;2023-02-28T11:20:25;26.00;26.90
38995;DHT22;24769;18.712;99.000;2023-02-28T11:22:53;25.80;26.40
38995;DHT22;24769;18.712;99.000;2023-02-28T11:25:33;25.60;27.40
38995;DHT22;24769;18.712;99.000;2023-02-28T11:28:03;25.50;29.60
38995;DHT22;24769;18.712;99.000;2023-02-28T11:30:40;25.40;29.90
38995;DHT22;24769;18.712;99.000;2023-02-28T11:33:29;25.20;31.80
38995;DHT22;24769;18.712;99.000;2023-02-28T11:36:04;25.00;33.30
38995;DHT22;24769;18.712;99.000;2023-02-28T11:38:36;24.80;34.70
38995;DHT22;24769;18.712;99.000;2023-02-28T11:41:36;24.70;34.30
38995;DHT22;24769;18.712;99.000;2023-02-28T11:44:20;24.70;35.20
38995;DHT22;24769;18.712;99.000;2023-02-28T11:46:54;24.60;37.30
38995;DHT22;24769;18.712;99.000;2023-02-28T11:53:04;24.30;38.50
38995;DHT22;24769;18.712;99.000;2023-02-28T12:03:56;24.00;44.70
38995;DHT22;24769;18.712;99.000;2023-02-28T12:06:36;23.90;46.30
38995;DHT22;24769;18.712;99.000;2023-02-28T12:09:14;23.80;46.30
38995;DHT22;24769;18.712;99.000;2023-02-28T12:11:58;23.80;47.80
38995;DHT22;24769;18.712;99.000;2023-02-28T12:17:51;23.60;47.80
38995;DHT22;24769;18.712;99.000;2023-02-28T12:28:16;23.30;50.30
38995;DHT22;24769;18.712;99.000;2023-02-28T12:31:00;23.30;51.20
38995;DHT22;24769;18.712;99.000;2023-02-28T12:33:34;23.20;50.40
38995;DHT22;24769;18.712;99.000;2023-02-28T12:36:09;23.20;50.80
38995;DHT22;24769;18.712;99.000;2023-02-28T12:41:45;23.10;53.40
38995;DHT22;24769;18.712;99.000;2023-02-28T12:44:18;23.00;53.40
38995;DHT22;24769;18.712;99.000;2023-02-28T12:46:50;23.00;54.90
38995;DHT22;24769;18.712;99.000;2023-02-28T12:49:25;22.90;56.50
38995;DHT22;24769;18.712;99.000;2023-02-28T12:51:56;22.90;57.50
38995;DHT22;24769;18.712;99.000;2023-02-28T12:54:44;22.80;57.80
38995;DHT22;24769;18.712;99.000;2023-02-28T12:59:56;22.60;58.30
38995;DHT22;24769;18.712;99.000;2023-02-28T13:02:45;22.60;59.40
38995;DHT22;24769;18.712;99.000;2023-02-28T13:14:29;22.40;60.10
38995;DHT22;24769;18.712;99.000;2023-02-28T13:19:30;22.30;62.60
38995;DHT22;24769;18.712;99.000;2023-02-28T13:21:59;22.20;63.40
38995;DHT22;24769;18.712;99.000;2023-02-28T13:24:45;22.30;63.10
38995;DHT22;24769;18.712;99.000;2023-02-28T13:27:31;22.40;64.30
38995;DHT22;24769;18.712;99.000;2023-02-28T13:29:59;22.30;65.70
38995;DHT22;24769;18.712;99.000;2023-02-28T13:39:57;22.20;68.30
38995;DHT22;24769;18.712;99.000;2023-02-28T13:47:38;22.40;63.50
38995;DHT22;24769;18.712;99.000;2023-02-28T13:50:28;22.40;61.80
38995;DHT22;24769;18.712;99.000;2023-02-28T14:01:53;22.30;65.00
38995;DHT22;24769;18.712;99.000;2023-02-28T14:07:28;22.00;68.70
38995;DHT22;24769;18.712;99.000;2023-02-28T14:10:04;21.90;70.20
38995;DHT22;24769;18.712;99.000;2023-02-28T14:15:49;21.80;71.70
38995;DHT22;24769;18.712;99.000;2023-02-28T14:20:54;21.70;72.40
38995;DHT22;24769;18.712;99.000;2023-02-28T14:29:54;21.50;78.70
38995;DHT22;24769;18.712;99.000;2023-02-28T14:32:32;21.30;80.70
38995;DHT22;24769;18.712;99.000;2023-02-28T14:37:33;21.30;78.10
38995;DHT22;24769;18.712;99.000;2023-02-28T14:40:01;21.60;76.30
38995;DHT22;24769;18.712;99.000;2023-02-28T14:42:37;21.50;77.20
38995;DHT22;24769;18.712;99.000;2023-02-28T14:45:18;21.40;79.40
38995;DHT22;24769;18.712;99.000;2023-02-28T14:47:46;21.30;82.40
38995;DHT22;24769;18.712;99.000;2023-02-28T14:50:25;21.10;84.00
38995;DHT22;24769;18.712;99.000;2023-02-28T14:52:54;21.00;86.50
38995;DHT22;24769;18.712;99.000;2023-02-28T14:55:28;21.10;87.40
38995;DHT22;24769;18.712;99.000;2023-02-28T14:58:03;21.00;88.70
38995;DHT22;24769;18.712;99.000;2023-02-28T15:00:48;20.90;90.30
38995;DHT22;24769;18.712;99.000;2023-02-28T15:06:11;20.90;90.90
38995;DHT22;24769;18.712;99.000;2023-02-28T15:08:38;20.90;93.60
38995;DHT22;24769;18.712;99.000;2023-02-28T15:11:08;20.90;93.40
38995;DHT22;24769;18.712;99.000;2023-02-28T15:13:54;20.90;93.70
38995;DHT22;24769;18.712;99.000;2023-02-28T15:16:30;20.80;94.10
38995;DHT22;24769;18.712;99.000;2023-02-28T15:19:05;20.80;96.00
38995;DHT22;24769;18.712;99.000;2023-02-28T15:21:36;20.80;95.80
38995;DHT22;24769;18.712;99.000;2023-02-28T15:24:21;20.60;97.80
38995;DHT22;24769;18.712;99.000;2023-02-28T15:26:54;20.60;99.90
38995;DHT22;24769;18.712;99.000;2023-02-28T15:29:29;20.50;99.90
38995;DHT22;24769;18.712;99.000;2023-02-28T15:32:04;20.50;99.90
38995;DHT22;24769;18.712;99.000;2023-02-28T15:34:38;20.60;99.90
38995;DHT22;24769;18.712;99.000;2023-02-28T15:40:38;20.70;98.40
38995;DHT22;24769;18.712;99.000;2023-02-28T15:43:17;20.60;99.90
38995;DHT22;24769;18.712;99.000;2023-02-28T15:51:08;20.40;99.90
38995;DHT22;24769;18.712;99.000;2023-02-28T15:58:57;20.30;99.90
38995;DHT22;24769;18.712;99.000;2023-02-28T16:01:30;20.30;99.90
38995;DHT22;24769;18.712;99.000;2023-02-28T16:04:01;20.30;99.90
38995;DHT22;24769;18.712;99.000;2023-02-28T16:07:21;20.30;99.90
38995;DHT22;24769;18.712;99.000;2023-02-28T16:09:22;20.30;99.90
38995;DHT22;24769;18.712;99.000;2023-02-28T16:11:50;20.30;99.90
38995;DHT22;24769;18.712;99.000;2023-02-28T16:14:24;20.20;99.90
38995;DHT22;24769;18.712;99.000;2023-02-28T16:16:55;20.10;99.90
38995;DHT22;24769;18.712;99.000;2023-02-28T16:19:23;20.10;99.90
38995;DHT22;24769;18.712;99.000;2023-02-28T16:21:50;20.10;99.90
38995;DHT22;24769;18.712;99.000;2023-02-28T16:24:17;20.10;99.90
38995;DHT22;24769;18.712;99.000;2023-02-28T16:26:47;20.00;99.90
38995;DHT22;24769;18.712;99.000;2023-02-28T16:29:22;19.90;99.90
38995;DHT22;24769;18.712;99.000;2023-02-28T16:31:50;19.80;99.90
38995;DHT22;24769;18.712;99.000;2023-02-28T16:34:16;19.80;99.90
38995;DHT22;24769;18.712;99.000;2023-02-28T16:36:48;19.90;99.90
38995;DHT22;24769;18.712;99.000;2023-02-28T16:39:16;19.90;99.90
38995;DHT22;24769;18.712;99.000;2023-02-28T16:41:44;19.80;99.90
38995;DHT22;24769;18.712;99.000;2023-02-28T16:44:14;19.80;99.90
38995;DHT22;24769;18.712;99.000;2023-02-28T16:46:46;19.90;99.90
38995;DHT22;24769;18.712;99.000;2023-02-28T16:49:12;19.70;99.90
38995;DHT22;24769;18.712;99.000;2023-02-28T16:51:40;19.70;99.90
38995;DHT22;24769;18.712;99.000;2023-02-28T16:54:06;19.60;99.90
38995;DHT22;24769;18.712;99.000;2023-02-28T16:56:33;19.60;99.90
38995;DHT22;24769;18.712;99.000;2023-02-28T16:59:01;19.60;99.90
38995;DHT22;24769;18.712;99.000;2023-02-28T17:01:28;19.60;99.90
38995;DHT22;24769;18.712;99.000;2023-02-28T17:03:54;19.60;99.90
38995;DHT22;24769;18.712;99.000;2023-02-28T17:06:24;19.70;99.90
38995;DHT22;24769;18.712;99.000;2023-02-28T17:08:54;19.50;99.90
38995;DHT22;24769;18.712;99.000;2023-02-28T17:11:21;19.50;99.90
38995;DHT22;24769;18.712;99.000;2023-02-28T17:13:47;19.60;99.90
38995;DHT22;24769;18.712;99.000;2023-02-28T17:16:34;19.60;99.90
38995;DHT22;24769;18.712;99.000;2023-02-28T17:19:04;19.60;99.90
38995;DHT22;24769;18.712;99.000;2023-02-28T17:21:32;19.50;99.90
38995;DHT22;24769;18.712;99.000;2023-02-28T17:23:59;19.50;99.90
38995;DHT22;24769;18.712;99.000;2023-02-28T17:26:26;19.50;99.90
38995;DHT22;24769;18.712;99.000;2023-02-28T17:28:54;19.40;99.90
38995;DHT22;24769;18.712;99.000;2023-02-28T17:31:25;19.30;99.90
38995;DHT22;24769;18.712;99.000;2023-02-28T17:33:53;19.30;99.90
38995;DHT22;24769;18.712;99.000;2023-02-28T17:36:24;19.40;99.90
38995;DHT22;24769;18.712;99.000;2023-02-28T17:38:53;19.30;99.90
38995;DHT22;24769;18.712;99.000;2023-02-28T17:41:21;19.20;99.90
38995;DHT22;24769;18.712;99.000;2023-02-28T17:43:48;19.20;99.90
38995;DHT22;24769;18.712;99.000;2023-02-28T17:46:21;19.20;99.90
38995;DHT22;24769;18.712;99.000;2023-02-28T17:48:52;19.20;99.90
38995;DHT22;24769;18.712;99.000;2023-02-28T17:51:20;19.20;99.90
38995;DHT22;24769;18.712;99.000;2023-02-28T17:53:47;19.20;99.90
38995;DHT22;24769;18.712;99.000;2023-02-28T17:56:20;19.10;99.90
38995;DHT22;24769;18.712;99.000;2023-02-28T17:58:47;19.10;99.90
38995;DHT22;24769;18.712;99.000;2023-02-28T18:01:13;19.10;99.90
38995;DHT22;24769;18.712;99.000;2023-02-28T18:03:40;19.10;99.90
38995;DHT22;24769;18.712;99.000;2023-02-28T18:06:13;19.10;99.90
38995;DHT22;24769;18.712;99.000;2023-02-28T18:08:40;19.00;99.90
38995;DHT22;24769;18.712;99.000;2023-02-28T18:11:07;19.10;99.90
38995;DHT22;24769;18.712;99.000;2023-02-28T18:13:47;19.10;99.90
38995;DHT22;24769;18.712;99.000;2023-02-28T18:16:15;19.10;99.90
38995;DHT22;24769;18.712;99.000;2023-02-28T18:18:42;19.10;99.90